createdAt,value
2024-01-24T05:38:02.304Z,0.14
2024-01-24T05:41:16.666Z,0.14
2024-01-24T05:44:30.745Z,-0.15
2024-01-24T05:47:45.068Z,0.10
2024-01-24T05:50:59.809Z,0.28
2024-01-24T05:54:18.232Z,0.37
2024-01-24T05:57:33.655Z,0.32
2024-01-24T06:00:47.895Z,0.11
2024-01-24T06:04:02.463Z,0.20
2024-01-24T06:07:16.689Z,0.20
2024-01-24T06:10:32.378Z,0.43
2024-01-24T06:13:46.706Z,0.55
2024-01-24T06:17:00.841Z,0.68
2024-01-24T06:20:15.316Z,0.62
2024-01-24T06:23:29.437Z,0.78
2024-01-24T06:26:45.164Z,0.95
2024-01-24T06:30:17.888Z,0.83
2024-01-24T06:33:33.551Z,1.01
2024-01-24T06:36:50.688Z,1.02
2024-01-24T06:40:08.227Z,1.16
2024-01-24T06:43:28.439Z,1.09
2024-01-24T06:50:36.865Z,1.05
2024-01-24T06:53:53.837Z,1.33
2024-01-24T06:57:09.348Z,1.32
2024-01-24T07:00:29.242Z,1.31
2024-01-24T07:03:43.534Z,1.42
2024-01-24T07:07:20.583Z,1.28
2024-01-24T07:10:43.884Z,1.63
2024-01-24T07:14:07.985Z,1.70
2024-01-24T07:17:59.012Z,1.92
2024-01-24T07:21:32.342Z,1.69
2024-01-24T07:24:56.386Z,1.88
2024-01-24T07:29:02.767Z,2.05
2024-01-24T07:32:17.662Z,2.06
2024-01-24T07:36:00.236Z,2.22
2024-01-24T07:39:23.287Z,2.46
2024-01-24T07:42:39.163Z,2.61
2024-01-24T07:45:55.973Z,2.75
2024-01-24T07:49:12.777Z,2.65
2024-01-24T07:52:40.901Z,2.66
2024-01-24T07:56:15.850Z,3.19
2024-01-24T08:00:05.504Z,3.39
2024-01-24T08:03:21.525Z,3.45
2024-01-24T08:07:09.604Z,3.65
2024-01-24T08:17:45.680Z,3.88
2024-01-24T08:20:59.981Z,3.86
2024-01-24T08:24:28.175Z,3.97
2024-01-24T08:27:54.358Z,4.15
2024-01-24T08:31:14.236Z,4.17
2024-01-24T08:34:57.973Z,4.23
2024-01-24T08:38:19.913Z,4.09
2024-01-24T08:41:52.509Z,4.10
2024-01-24T08:45:41.243Z,3.92
2024-01-24T08:49:00.555Z,4.28
2024-01-24T08:52:18.158Z,4.17
2024-01-24T08:59:24.405Z,4.41
2024-01-24T09:02:52.856Z,4.42
2024-01-24T09:06:16.731Z,4.35
2024-01-24T09:09:56.251Z,4.39
2024-01-24T09:13:31.118Z,4.43
2024-01-24T09:17:11.344Z,4.73
2024-01-24T09:21:12.873Z,4.53
2024-01-24T09:24:47.627Z,4.42
2024-01-24T09:28:10.915Z,4.63
2024-01-24T09:31:30.650Z,4.58
2024-01-24T09:35:01.658Z,4.70
2024-01-24T09:39:55.814Z,4.71
2024-01-24T09:43:14.004Z,4.70
2024-01-24T09:46:29.751Z,4.41
2024-01-24T09:50:19.174Z,4.31
2024-01-24T09:54:06.815Z,4.29
2024-01-24T09:57:27.875Z,4.39
2024-01-24T10:00:56.215Z,4.52
2024-01-24T10:04:18.265Z,4.47
2024-01-24T10:11:34.410Z,4.27
2024-01-24T10:14:53.133Z,4.32
2024-01-24T10:18:18.005Z,4.34
2024-01-24T10:22:13.361Z,4.63
2024-01-24T10:26:00.405Z,4.68
2024-01-24T10:30:05.449Z,4.78
2024-01-24T10:33:41.602Z,5.00
2024-01-24T10:37:18.019Z,5.01
2024-01-24T10:40:52.735Z,5.29
2024-01-24T10:44:17.144Z,5.35
2024-01-24T10:48:05.013Z,5.41
2024-01-24T10:51:30.003Z,5.25
2024-01-24T10:55:22.176Z,5.21
2024-01-24T11:02:39.538Z,5.44
2024-01-24T11:06:09.128Z,5.55
2024-01-24T11:09:51.415Z,5.47
2024-01-24T11:13:19.034Z,5.44
2024-01-24T11:16:54.120Z,5.44
2024-01-24T11:20:12.239Z,5.45
2024-01-24T11:24:11.098Z,5.63
2024-01-24T11:27:45.506Z,5.58
2024-01-24T11:31:06.749Z,5.42
2024-01-24T11:34:40.685Z,5.49
2024-01-24T11:38:12.661Z,5.52
2024-01-24T11:41:44.676Z,5.09
2024-01-24T11:45:58.909Z,5.31
2024-01-24T11:49:24.842Z,5.05
2024-01-24T11:52:53.495Z,4.99
2024-01-24T11:56:19.538Z,4.96
2024-01-24T11:59:42.907Z,5.15
2024-01-24T12:03:15.596Z,5.00
2024-01-24T12:06:37.348Z,4.95
2024-01-24T12:10:22.619Z,5.29
2024-01-24T12:13:48.640Z,5.18
2024-01-24T12:17:29.449Z,5.13
2024-01-24T12:21:10.886Z,5.10
2024-01-24T12:24:55.346Z,5.19
2024-01-24T12:28:30.105Z,5.05
2024-01-24T12:36:37.969Z,5.04
2024-01-24T12:40:06.069Z,4.91
2024-01-24T12:43:39.966Z,5.16
2024-01-24T12:47:11.550Z,5.08
2024-01-24T12:50:29.104Z,5.06
2024-01-24T12:53:51.588Z,5.13
2024-01-24T12:57:28.324Z,5.11
2024-01-24T13:00:50.019Z,5.31
2024-01-24T13:04:31.546Z,5.40
2024-01-24T13:07:57.317Z,5.19
2024-01-24T13:11:14.519Z,5.19
2024-01-24T13:14:30.535Z,5.17
2024-01-24T13:17:48.593Z,5.30
2024-01-24T13:21:07.343Z,5.26
2024-01-24T13:24:26.120Z,5.36
2024-01-24T13:27:46.378Z,5.38
2024-01-24T13:31:18.020Z,5.12
2024-01-24T13:34:35.043Z,5.14
2024-01-24T13:38:10.089Z,4.95
2024-01-24T13:41:27.829Z,4.88
2024-01-24T13:44:47.158Z,5.03
2024-01-24T13:48:01.865Z,4.92
2024-01-24T13:51:26.873Z,4.79
2024-01-24T13:54:45.732Z,4.83
2024-01-24T13:58:01.625Z,4.94
2024-01-24T14:01:17.542Z,4.73
2024-01-24T14:04:31.965Z,4.81
2024-01-24T14:07:46.302Z,5.00
2024-01-24T14:11:00.773Z,4.93
2024-01-24T14:14:15.088Z,5.05
2024-01-24T14:17:30.886Z,4.95
2024-01-24T14:20:45.478Z,5.06
2024-01-24T14:24:00.663Z,5.27
2024-01-24T14:27:14.832Z,4.97
2024-01-24T14:30:29.157Z,5.05
2024-01-24T14:33:44.966Z,5.02
2024-01-24T14:37:07.232Z,5.03
2024-01-24T14:40:24.957Z,5.04
2024-01-24T14:43:39.253Z,4.99
2024-01-24T14:46:53.603Z,4.98
2024-01-24T14:50:11.497Z,5.03
2024-01-24T14:53:26.322Z,4.91
2024-01-24T14:56:40.670Z,5.06
2024-01-24T14:59:55.314Z,4.97
2024-01-24T15:03:09.597Z,5.00
2024-01-24T15:06:25.579Z,4.72
2024-01-24T15:09:39.809Z,4.84
2024-01-24T15:12:54.510Z,4.84
2024-01-24T15:16:08.740Z,4.84
2024-01-24T15:19:23.217Z,4.75
2024-01-24T15:22:40.443Z,4.67
2024-01-24T15:25:56.119Z,4.74
2024-01-24T15:29:10.796Z,4.58
2024-01-24T15:32:25.022Z,4.54
2024-01-24T15:35:39.391Z,4.41
2024-01-24T15:38:56.467Z,4.43
2024-01-24T15:42:12.579Z,4.42
2024-01-24T15:45:28.091Z,4.57
2024-01-24T15:48:42.901Z,4.66
2024-01-24T15:51:58.324Z,4.87
2024-01-24T15:55:14.214Z,4.81
2024-01-24T15:58:28.466Z,4.81
2024-01-24T16:01:47.710Z,4.80
2024-01-24T16:05:02.656Z,4.74
